createdAt,value
2019-05-28T00:00:01.684Z,101378.25
2019-05-28T00:02:23.379Z,101378.25
2019-05-28T00:04:56.058Z,101374.02
2019-05-28T00:07:28.539Z,101379.37
2019-05-28T00:10:01.112Z,101376.00
2019-05-28T00:12:34.717Z,101384.09
2019-05-28T00:15:09.055Z,101386.63
2019-05-28T00:17:41.740Z,101383.45
2019-05-28T00:20:14.499Z,101383.48
2019-05-28T00:22:50.458Z,101379.08
2019-05-28T00:25:25.848Z,101386.53
2019-05-28T00:27:57.032Z,101385.36
2019-05-28T00:30:29.817Z,101392.31
2019-05-28T00:33:02.296Z,101391.66
2019-05-28T00:35:34.764Z,101389.55
2019-05-28T00:38:07.446Z,101397.78
2019-05-28T00:40:39.820Z,101083.90
2019-05-28T00:43:12.497Z,101401.62
2019-05-28T00:45:45.278Z,101400.95
2019-05-28T00:48:17.748Z,101406.78
2019-05-28T00:50:50.433Z,101399.00
2019-05-28T00:53:23.008Z,101397.64
2019-05-28T00:55:55.684Z,101399.42
2019-05-28T00:58:27.970Z,101404.34
2019-05-28T01:01:00.327Z,101401.17
2019-05-28T01:03:33.009Z,101397.91
2019-05-28T01:06:05.691Z,101396.34
2019-05-28T01:08:38.059Z,101400.94
2019-05-28T01:11:10.690Z,101401.34
2019-05-28T01:13:43.010Z,101398.51
2019-05-28T01:16:15.588Z,101398.46
2019-05-28T01:18:48.056Z,101395.75
2019-05-28T01:21:20.602Z,101399.83
2019-05-28T01:23:53.110Z,101395.17
2019-05-28T01:26:25.793Z,101402.16
2019-05-28T01:28:58.466Z,101407.29
2019-05-28T01:31:31.355Z,101400.61
2019-05-28T01:34:04.030Z,101399.28
2019-05-28T01:36:37.048Z,101399.14
2019-05-28T01:39:08.887Z,101407.17
2019-05-28T01:41:41.560Z,101393.58
2019-05-28T01:44:13.655Z,101398.52
2019-05-28T01:46:45.993Z,101399.46
2019-05-28T01:49:18.159Z,101397.13
2019-05-28T01:51:50.331Z,101397.44
2019-05-28T01:54:23.110Z,101393.44
2019-05-28T01:56:55.698Z,101394.70
2019-05-28T01:59:28.164Z,101395.25
2019-05-28T02:02:00.633Z,101394.64
2019-05-28T02:04:33.520Z,101400.84
2019-05-28T02:07:06.096Z,101398.64
2019-05-28T02:09:38.876Z,101402.64
2019-05-28T02:12:11.456Z,101400.52
2019-05-28T02:14:43.729Z,101406.65
2019-05-28T02:17:16.933Z,101401.20
2019-05-28T02:19:48.877Z,101405.60
2019-05-28T02:22:21.669Z,101404.66
2019-05-28T02:24:54.236Z,101409.68
2019-05-28T02:27:26.675Z,101410.39
2019-05-28T02:29:59.496Z,101414.33
2019-05-28T02:32:32.484Z,101417.20
2019-05-28T02:35:06.408Z,101416.05
2019-05-28T02:37:39.071Z,101420.91
2019-05-28T02:40:11.747Z,101419.06
2019-05-28T02:42:44.328Z,101419.06
2019-05-28T02:45:16.910Z,101428.11
2019-05-28T02:47:49.181Z,101422.19
2019-05-28T02:50:27.278Z,101428.78
2019-05-28T02:53:00.162Z,101423.03
2019-05-28T02:55:32.431Z,101424.81
2019-05-28T02:58:05.515Z,101427.29
2019-05-28T03:00:37.688Z,101425.84
2019-05-28T03:03:10.570Z,101427.34
2019-05-28T03:05:43.355Z,101430.14
2019-05-28T03:08:15.827Z,101438.05
2019-05-28T03:11:04.545Z,101443.98
2019-05-28T03:13:22.415Z,101437.50
2019-05-28T03:15:56.543Z,101435.73
2019-05-28T03:18:29.468Z,101438.53
2019-05-28T03:21:01.687Z,101441.66
2019-05-28T03:23:35.663Z,101435.31
2019-05-28T03:26:08.205Z,101438.05
2019-05-28T03:28:41.053Z,101438.59
2019-05-28T03:31:14.262Z,101439.15
2019-05-28T03:33:46.737Z,101438.70
2019-05-28T03:36:21.102Z,101436.52
2019-05-28T03:38:54.337Z,101443.84
2019-05-28T03:41:26.505Z,101438.14
2019-05-28T03:43:59.279Z,101443.37
2019-05-28T03:46:31.540Z,101435.80
2019-05-28T03:49:04.425Z,101447.75
2019-05-28T03:51:36.904Z,101443.94
2019-05-28T03:54:09.281Z,101448.40
2019-05-28T03:56:41.647Z,101440.98
2019-05-28T03:59:14.433Z,101442.95
2019-05-28T04:01:46.710Z,101447.75
2019-05-28T04:04:19.384Z,101447.85
2019-05-28T04:06:51.763Z,101450.43
2019-05-28T04:09:24.227Z,101452.95
2019-05-28T04:11:56.418Z,101452.94
2019-05-28T04:14:28.615Z,101448.66
2019-05-28T04:17:00.902Z,101453.68
2019-05-28T04:19:33.147Z,101454.72
2019-05-28T04:22:05.306Z,101459.02
2019-05-28T04:24:38.047Z,101454.86
2019-05-28T04:27:10.450Z,101456.80
2019-05-28T04:29:44.959Z,101463.23
2019-05-28T04:32:17.212Z,101473.66
2019-05-28T04:34:49.581Z,101469.62
2019-05-28T04:37:21.960Z,101474.07
2019-05-28T04:39:54.594Z,101473.42
2019-05-28T04:42:27.110Z,101468.05
2019-05-28T04:45:00.320Z,101470.59
2019-05-28T04:47:33.737Z,101475.88
2019-05-28T04:50:07.130Z,101474.66
2019-05-28T04:52:40.709Z,101482.74
2019-05-28T04:55:13.077Z,101483.02
2019-05-28T04:57:45.855Z,101478.39
2019-05-28T05:00:18.639Z,101476.09
2019-05-28T05:02:59.460Z,101480.48
2019-05-28T05:05:25.929Z,101476.97
2019-05-28T05:07:58.546Z,101478.30
2019-05-28T05:10:31.261Z,101483.79
2019-05-28T05:13:05.414Z,101484.47
2019-05-28T05:15:38.294Z,101486.41
2019-05-28T05:18:10.769Z,101480.20
2019-05-28T05:20:43.472Z,101487.09
2019-05-28T05:23:15.552Z,101480.58
2019-05-28T05:25:49.570Z,101488.43
2019-05-28T05:28:21.902Z,101490.98
2019-05-28T05:30:54.306Z,101495.53
2019-05-28T05:33:26.733Z,101496.02
2019-05-28T05:36:01.053Z,101497.68
2019-05-28T05:38:33.541Z,101492.45
2019-05-28T05:41:06.321Z,101490.06
2019-05-28T05:43:38.837Z,101497.13
2019-05-28T05:46:11.265Z,101494.00
2019-05-28T05:48:43.746Z,101490.19
2019-05-28T05:51:16.368Z,101490.00
2019-05-28T05:53:48.587Z,101491.61
2019-05-28T05:56:21.170Z,101492.59
2019-05-28T05:58:53.529Z,101493.81
2019-05-28T06:01:26.021Z,101493.81
2019-05-28T06:03:57.893Z,101498.31
2019-05-28T06:06:30.072Z,101497.17
2019-05-28T06:09:02.623Z,101499.77
2019-05-28T06:11:35.212Z,101503.27
2019-05-28T06:14:07.584Z,101503.39
2019-05-28T06:16:40.538Z,101502.83
2019-05-28T06:19:12.830Z,101502.84
2019-05-28T06:21:46.762Z,101510.12
2019-05-28T06:24:19.249Z,101511.73
2019-05-28T06:26:51.673Z,101513.95
2019-05-28T06:29:25.099Z,101506.96
2019-05-28T06:31:58.465Z,101502.23
2019-05-28T06:34:31.148Z,101509.41
2019-05-28T06:37:04.546Z,101502.34
2019-05-28T06:39:37.213Z,101505.30
2019-05-28T06:42:09.596Z,101505.54
2019-05-28T06:44:41.769Z,101508.64
2019-05-28T06:47:13.921Z,101503.61
2019-05-28T06:49:46.189Z,101506.36
2019-05-28T06:52:18.371Z,101504.61
2019-05-28T06:54:51.051Z,101509.02
2019-05-28T06:57:23.577Z,101504.08
2019-05-28T06:59:55.791Z,101503.58
2019-05-28T07:02:28.166Z,101507.40
2019-05-28T07:04:59.940Z,101505.18
2019-05-28T07:07:32.187Z,101500.59
2019-05-28T07:10:08.140Z,101499.34
2019-05-28T07:12:40.313Z,101501.59
2019-05-28T07:15:12.981Z,101499.27
2019-05-28T07:17:45.460Z,101498.83
2019-05-28T07:20:18.141Z,101504.13
2019-05-28T07:22:50.106Z,101496.98
2019-05-28T07:25:22.179Z,101495.80
2019-05-28T07:28:09.551Z,101495.04
2019-05-28T07:30:28.750Z,101494.43
2019-05-28T07:33:01.339Z,101493.75
2019-05-28T07:35:45.478Z,101490.67
2019-05-28T07:38:06.007Z,101487.53
2019-05-28T07:40:38.138Z,101484.37
2019-05-28T07:43:10.617Z,101496.52
2019-05-28T07:45:42.738Z,101488.88
2019-05-28T07:48:14.579Z,101495.59
2019-05-28T07:50:46.543Z,101489.85
2019-05-28T07:53:18.821Z,101489.48
2019-05-28T07:55:51.343Z,101487.72
2019-05-28T07:58:23.934Z,101490.46
2019-05-28T08:00:56.395Z,101483.26
2019-05-28T08:03:28.837Z,101490.06
2019-05-28T08:06:01.144Z,101485.30
2019-05-28T08:08:33.950Z,101480.38
2019-05-28T08:11:06.194Z,101482.19
2019-05-28T08:13:41.137Z,101479.91
2019-05-28T08:16:18.552Z,101477.87
2019-05-28T08:18:47.417Z,101485.28
2019-05-28T08:21:18.784Z,101473.78
2019-05-28T08:23:51.132Z,101480.47
2019-05-28T08:26:22.610Z,101483.00
2019-05-28T08:28:54.686Z,101478.96
2019-05-28T08:31:27.219Z,101479.63
2019-05-28T08:33:59.299Z,101480.09
2019-05-28T08:36:32.067Z,101474.33
2019-05-28T08:39:06.626Z,101473.49
2019-05-28T08:41:38.756Z,101479.06
2019-05-28T08:44:10.549Z,101471.84
2019-05-28T08:46:42.583Z,101475.91
2019-05-28T08:49:15.052Z,101473.49
2019-05-28T08:51:47.323Z,101479.58
2019-05-28T08:54:19.805Z,101468.75
2019-05-28T08:56:52.177Z,101470.95
2019-05-28T08:59:24.680Z,101469.17
2019-05-28T09:01:56.889Z,101467.00
2019-05-28T09:04:29.499Z,101466.45
2019-05-28T09:07:01.755Z,101459.61
2019-05-28T09:09:33.446Z,101456.25
2019-05-28T09:12:05.582Z,101461.91
2019-05-28T09:14:54.999Z,101454.19
2019-05-28T09:17:10.767Z,101455.98
2019-05-28T09:19:43.346Z,101446.47
2019-05-28T09:22:25.088Z,101460.89
2019-05-28T09:24:50.203Z,101455.16
2019-05-28T09:27:22.785Z,101453.20
2019-05-28T09:29:55.582Z,101443.84
2019-05-28T09:32:27.868Z,101447.09
2019-05-28T09:35:02.439Z,101450.14
2019-05-28T09:37:34.864Z,101445.92
2019-05-28T09:40:06.820Z,101446.32
2019-05-28T09:42:38.900Z,101432.58
2019-05-28T09:45:22.513Z,101443.28
2019-05-28T09:47:46.897Z,101437.41
2019-05-28T09:50:30.647Z,101433.33
2019-05-28T09:52:55.380Z,101435.92
2019-05-28T09:55:27.696Z,101432.17
2019-05-28T09:57:59.861Z,101423.16
2019-05-28T10:00:33.757Z,101422.31
2019-05-28T10:03:06.166Z,101427.48
2019-05-28T10:05:37.899Z,101423.79
2019-05-28T10:08:09.756Z,101414.58
2019-05-28T10:10:42.051Z,101416.37
2019-05-28T10:13:14.190Z,101418.44
2019-05-28T10:15:47.149Z,101416.72
2019-05-28T10:18:19.244Z,101414.62
2019-05-28T10:20:51.610Z,101406.63
2019-05-28T10:23:24.812Z,101411.70
2019-05-28T10:25:57.484Z,101407.09
2019-05-28T10:28:29.789Z,101407.25
2019-05-28T10:31:01.926Z,101405.34
2019-05-28T10:33:34.297Z,101396.98
2019-05-28T10:36:07.027Z,101397.70
2019-05-28T10:38:39.247Z,101396.81
2019-05-28T10:41:14.945Z,101394.39
2019-05-28T10:43:47.517Z,101388.50
2019-05-28T10:46:19.859Z,101395.40
2019-05-28T10:48:52.532Z,101390.22
2019-05-28T10:51:25.229Z,101383.36
2019-05-28T10:53:57.392Z,101380.28
2019-05-28T10:56:30.101Z,101385.28
2019-05-28T10:59:02.227Z,101375.42
2019-05-28T11:01:34.895Z,101378.83
2019-05-28T11:04:07.064Z,101368.83
2019-05-28T11:06:51.528Z,101373.88
2019-05-28T11:09:14.062Z,101369.87
2019-05-28T11:11:46.934Z,101369.59
2019-05-28T11:14:19.519Z,101364.38
2019-05-28T11:16:52.411Z,101369.33
2019-05-28T11:19:24.883Z,101362.66
2019-05-28T11:21:57.459Z,101355.34
2019-05-28T11:24:29.951Z,101357.84
2019-05-28T11:27:02.818Z,101350.18
2019-05-28T11:29:35.183Z,101348.14
2019-05-28T11:32:08.338Z,101347.27
2019-05-28T11:34:40.650Z,101342.10
2019-05-28T11:37:13.520Z,101341.66
2019-05-28T11:39:45.800Z,101342.26
2019-05-28T11:42:19.148Z,101338.10
2019-05-28T11:44:51.767Z,101343.63
2019-05-28T11:47:24.359Z,101344.34
2019-05-28T11:49:56.937Z,101344.97
2019-05-28T11:52:29.412Z,101333.26
2019-05-28T11:55:01.681Z,101341.38
2019-05-28T11:57:35.375Z,101334.00
2019-05-28T12:00:08.107Z,101340.42
2019-05-28T12:02:40.759Z,101344.00
2019-05-28T12:05:14.944Z,101347.56
2019-05-28T12:07:51.354Z,101341.78
2019-05-28T12:10:21.937Z,101343.47
2019-05-28T12:12:54.415Z,101337.18
2019-05-28T12:15:26.997Z,101334.45
2019-05-28T12:17:59.868Z,101332.58
2019-05-28T12:20:33.303Z,101333.14
2019-05-28T12:23:11.528Z,101329.50
2019-05-28T12:25:40.546Z,101336.45
2019-05-28T12:28:16.135Z,101323.17
2019-05-28T12:30:49.013Z,101339.18
2019-05-28T12:33:21.496Z,101323.84
2019-05-28T12:35:53.977Z,101316.00
2019-05-28T12:38:26.477Z,101315.98
2019-05-28T12:40:59.020Z,101314.25
2019-05-28T12:43:32.665Z,101315.66
2019-05-28T12:46:05.096Z,101314.45
2019-05-28T12:48:37.779Z,101311.05
2019-05-28T12:51:10.043Z,101311.05
2019-05-28T12:53:50.372Z,101298.41
2019-05-28T12:56:17.451Z,101301.28
2019-05-28T12:58:50.223Z,101307.55
2019-05-28T13:01:24.080Z,101301.12
2019-05-28T13:03:56.805Z,101301.12
2019-05-28T13:06:29.323Z,101305.48
2019-05-28T13:09:01.912Z,101281.78
2019-05-28T13:11:35.520Z,101224.61
2019-05-28T13:14:08.066Z,101295.34
2019-05-28T13:16:40.330Z,101294.38
2019-05-28T13:19:13.252Z,101294.38
2019-05-28T13:21:45.766Z,101316.50
2019-05-28T13:24:18.260Z,101290.05
2019-05-28T13:26:50.922Z,101293.10
2019-05-28T13:29:23.604Z,101287.22
2019-05-28T13:31:56.086Z,101285.01
2019-05-28T13:34:28.684Z,101280.42
2019-05-28T13:37:01.265Z,101277.86
2019-05-28T13:39:34.046Z,101277.52
2019-05-28T13:42:07.526Z,101286.83
2019-05-28T13:44:40.992Z,101286.83
2019-05-28T13:47:32.330Z,101278.92
2019-05-28T13:49:48.233Z,101283.11
2019-05-28T13:52:21.019Z,101284.71
2019-05-28T13:54:53.364Z,101269.79
2019-05-28T13:57:26.214Z,101261.29
2019-05-28T13:59:59.333Z,101269.39
2019-05-28T14:02:32.633Z,101264.19
2019-05-28T14:05:07.194Z,101263.73
2019-05-28T14:07:38.938Z,101260.93
2019-05-28T14:10:12.618Z,101256.81
2019-05-28T14:12:45.457Z,101256.63
2019-05-28T14:15:18.252Z,101247.75
2019-05-28T14:17:50.754Z,101245.95
2019-05-28T14:20:23.865Z,101246.27
2019-05-28T14:22:56.340Z,101249.50
2019-05-28T14:25:28.799Z,101243.36
2019-05-28T14:28:01.742Z,101240.56
2019-05-28T14:30:34.257Z,101240.55
2019-05-28T14:33:06.935Z,101237.78
2019-05-28T14:35:39.594Z,101238.33
2019-05-28T14:38:12.095Z,101236.50
2019-05-28T14:40:44.604Z,101238.13
2019-05-28T14:43:17.262Z,101237.73
2019-05-28T14:45:49.789Z,101245.20
2019-05-28T14:48:22.362Z,101237.91
2019-05-28T14:50:54.677Z,101233.41
2019-05-28T14:53:26.950Z,101234.80
2019-05-28T14:55:59.632Z,101237.69
2019-05-28T14:58:32.296Z,101238.20
2019-05-28T15:01:05.106Z,101241.62
2019-05-28T15:03:37.575Z,101234.77
2019-05-28T15:06:10.026Z,101236.67
2019-05-28T15:08:42.293Z,101172.21
2019-05-28T15:11:14.899Z,101238.50
2019-05-28T15:13:47.614Z,101236.69
2019-05-28T15:16:20.286Z,101230.73
2019-05-28T15:18:52.608Z,101234.47
2019-05-28T15:21:25.079Z,101237.11
2019-05-28T15:23:57.506Z,101233.73
2019-05-28T15:26:30.130Z,101234.55
2019-05-28T15:29:02.892Z,101233.17
2019-05-28T15:31:36.213Z,101236.03
2019-05-28T15:34:09.558Z,101232.23
2019-05-28T15:36:42.351Z,101230.66
2019-05-28T15:39:15.394Z,101232.67
2019-05-28T15:41:48.202Z,101232.02
2019-05-28T15:44:20.439Z,101230.30
2019-05-28T15:46:53.305Z,101232.67
2019-05-28T15:49:25.788Z,101233.94
2019-05-28T15:52:07.245Z,101235.28
2019-05-28T15:54:32.795Z,101234.19
2019-05-28T15:57:05.569Z,101228.78
2019-05-28T15:59:38.153Z,101232.12
2019-05-28T16:02:11.043Z,101226.92
2019-05-28T16:04:43.887Z,101224.47
2019-05-28T16:07:16.582Z,101228.01
2019-05-28T16:09:56.035Z,101223.37
2019-05-28T16:12:24.152Z,101223.34
2019-05-28T16:14:56.669Z,101228.04
2019-05-28T16:17:29.716Z,101216.25
2019-05-28T16:20:02.154Z,101219.40
2019-05-28T16:22:34.512Z,101222.88
2019-05-28T16:25:07.321Z,101210.54
2019-05-28T16:27:40.267Z,101218.00
2019-05-28T16:31:34.790Z,101205.91
2019-05-28T16:34:07.453Z,101212.73
2019-05-28T16:36:39.830Z,101205.86
2019-05-28T16:39:12.829Z,101213.09
2019-05-28T16:41:45.506Z,101207.66
2019-05-28T16:44:18.189Z,101210.47
2019-05-28T16:47:14.281Z,101216.73
2019-05-28T16:49:25.932Z,101212.07
2019-05-28T16:52:00.873Z,101214.04
2019-05-28T16:54:33.874Z,101212.33
2019-05-28T16:57:06.379Z,101215.30
2019-05-28T16:59:39.393Z,101214.05
2019-05-28T17:02:12.795Z,101218.83
2019-05-28T17:04:45.772Z,101217.20
2019-05-28T17:07:18.492Z,101216.84
2019-05-28T17:09:51.109Z,101210.30
2019-05-28T17:12:23.602Z,101220.97
2019-05-28T17:14:56.920Z,101222.36
2019-05-28T17:17:31.264Z,101221.47
2019-05-28T17:20:09.815Z,101216.40
2019-05-28T17:22:45.555Z,101220.50
2019-05-28T17:25:20.317Z,101220.84
2019-05-28T17:27:55.107Z,101226.09
2019-05-28T17:30:30.170Z,101215.91
2019-05-28T17:33:22.071Z,101221.21
2019-05-28T17:35:57.843Z,101222.52
2019-05-28T17:38:32.376Z,101220.70
2019-05-28T17:41:10.358Z,101227.69
2019-05-28T17:43:43.760Z,101223.51
2019-05-28T17:46:24.221Z,101225.31
2019-05-28T17:49:16.072Z,101229.52
2019-05-28T17:51:59.440Z,101228.22
2019-05-28T17:54:33.906Z,101227.73
2019-05-28T17:57:07.401Z,101225.31
2019-05-28T17:59:41.227Z,101234.30
2019-05-28T18:02:19.843Z,101233.56
2019-05-28T18:04:54.252Z,101232.77
2019-05-28T18:07:30.681Z,101239.80
2019-05-28T18:10:10.136Z,101246.80
2019-05-28T18:12:45.721Z,101242.39
2019-05-28T18:15:20.289Z,101246.13
2019-05-28T18:17:55.218Z,101246.41
2019-05-28T18:20:29.718Z,101252.83
2019-05-28T18:23:07.410Z,101196.48
2019-05-28T18:25:42.254Z,101255.13
2019-05-28T18:28:18.353Z,101258.23
2019-05-28T18:30:57.042Z,101257.53
2019-05-28T18:33:28.336Z,101262.87
2019-05-28T18:36:02.186Z,101249.92
2019-05-28T18:38:43.350Z,101264.70
2019-05-28T18:41:21.212Z,101264.26
2019-05-28T18:43:44.272Z,101263.11
2019-05-28T18:46:21.203Z,101265.13
2019-05-28T18:48:54.570Z,101262.91
2019-05-28T18:51:28.779Z,101265.77
2019-05-28T18:54:01.526Z,101268.94
2019-05-28T18:56:36.067Z,101286.34
2019-05-28T18:59:09.486Z,101273.00
2019-05-28T19:01:41.924Z,101275.93
2019-05-28T19:04:16.249Z,101274.98
2019-05-28T19:06:50.713Z,101269.08
2019-05-28T19:09:25.198Z,101270.67
2019-05-28T19:11:58.167Z,101273.03
2019-05-28T19:14:30.861Z,101273.14
2019-05-28T19:17:03.345Z,101270.06
2019-05-28T19:19:36.220Z,101269.59
2019-05-28T19:22:09.387Z,101268.84
2019-05-28T19:24:42.390Z,101266.04
2019-05-28T19:27:14.991Z,101265.30
2019-05-28T19:29:50.530Z,101261.69
2019-05-28T19:32:22.038Z,101275.00
2019-05-28T19:34:54.642Z,101261.31
2019-05-28T19:37:27.285Z,101254.58
2019-05-28T19:39:59.809Z,101261.91
2019-05-28T19:42:32.426Z,101262.73
2019-05-28T19:45:06.984Z,101265.58
2019-05-28T19:47:40.691Z,101260.52
2019-05-28T19:50:13.483Z,101261.38
2019-05-28T19:52:45.955Z,101258.41
2019-05-28T19:55:18.645Z,101261.44
2019-05-28T19:57:51.003Z,101259.60
2019-05-28T20:00:23.581Z,101266.65
2019-05-28T20:02:56.060Z,101267.45
2019-05-28T20:05:28.745Z,101266.90
2019-05-28T20:08:01.114Z,101274.37
2019-05-28T20:10:33.594Z,101275.03
2019-05-28T20:13:05.957Z,101276.47
2019-05-28T20:15:38.219Z,101273.03
2019-05-28T20:18:25.827Z,101273.25
2019-05-28T20:20:45.516Z,101277.83
2019-05-28T20:23:18.026Z,101280.14
2019-05-28T20:25:51.837Z,101279.75
2019-05-28T20:28:24.491Z,101282.19
2019-05-28T20:30:57.259Z,101292.47
2019-05-28T20:33:29.545Z,101295.16
2019-05-28T20:36:03.716Z,101291.45
2019-05-28T20:38:36.110Z,101290.70
2019-05-28T20:41:08.407Z,101301.30
2019-05-28T20:43:40.972Z,101298.33
2019-05-28T20:46:13.330Z,101298.13
2019-05-28T20:48:45.715Z,101288.61
2019-05-28T20:51:22.051Z,101295.41
2019-05-28T20:53:52.407Z,101294.93
2019-05-28T20:56:25.093Z,101286.95
2019-05-28T20:59:00.087Z,101279.25
2019-05-28T21:01:31.900Z,101278.86
2019-05-28T21:04:03.939Z,101279.38
2019-05-28T21:06:36.417Z,101275.09
2019-05-28T21:09:08.990Z,101271.73
2019-05-28T21:11:41.157Z,101270.28
2019-05-28T21:14:13.526Z,101274.03
2019-05-28T21:16:46.005Z,101271.14
2019-05-28T21:19:18.173Z,101275.45
2019-05-28T21:21:51.416Z,101267.66
2019-05-28T21:24:23.633Z,101267.23
2019-05-28T21:26:56.285Z,101274.28
2019-05-28T21:29:28.474Z,101269.50
2019-05-28T21:32:00.884Z,101271.52
2019-05-28T21:34:33.218Z,101273.23
2019-05-28T21:37:06.028Z,101272.17
2019-05-28T21:39:38.267Z,101272.72
2019-05-28T21:42:10.825Z,101269.16
2019-05-28T21:44:43.022Z,101274.36
2019-05-28T21:47:15.523Z,101277.05
2019-05-28T21:49:47.982Z,101274.61
2019-05-28T21:52:20.238Z,101272.75
2019-05-28T21:54:52.997Z,101279.79
2019-05-28T21:57:25.595Z,101279.29
2019-05-28T21:59:58.004Z,101281.66
2019-05-28T22:02:30.133Z,101288.19
2019-05-28T22:05:06.905Z,101284.95
2019-05-28T22:07:37.140Z,101278.50
2019-05-28T22:10:09.297Z,101283.55
2019-05-28T22:12:41.573Z,101283.09
2019-05-28T22:15:13.734Z,101272.95
2019-05-28T22:17:46.263Z,101272.19
2019-05-28T22:20:18.607Z,101273.36
2019-05-28T22:22:51.151Z,101270.09
2019-05-28T22:25:23.655Z,101269.72
2019-05-28T22:27:56.546Z,101269.46
2019-05-28T22:30:29.206Z,101276.52
2019-05-28T22:33:02.297Z,101271.08
2019-05-28T22:35:34.447Z,101274.31
2019-05-28T22:38:08.052Z,101276.81
2019-05-28T22:40:40.120Z,101276.43
2019-05-28T22:43:13.003Z,101275.09
2019-05-28T22:45:45.420Z,101272.97
2019-05-28T22:48:18.336Z,101275.56
2019-05-28T22:50:51.141Z,101275.39
2019-05-28T22:53:23.513Z,101280.09
2019-05-28T22:55:56.100Z,101282.54
2019-05-28T22:58:28.976Z,101277.75
2019-05-28T23:01:02.477Z,101274.98
2019-05-28T23:03:34.844Z,101276.31
2019-05-28T23:06:07.342Z,101283.56
2019-05-28T23:08:39.749Z,101275.34
2019-05-28T23:11:11.858Z,101274.27
2019-05-28T23:13:47.069Z,101276.08
2019-05-28T23:16:18.655Z,101272.35
2019-05-28T23:18:51.226Z,101269.49
2019-05-28T23:21:23.395Z,101271.47
2019-05-28T23:23:55.991Z,101266.66
2019-05-28T23:26:28.148Z,101268.55
2019-05-28T23:29:01.612Z,101264.74
2019-05-28T23:31:34.034Z,101258.90
2019-05-28T23:34:06.797Z,101264.69
2019-05-28T23:36:39.267Z,101263.36
2019-05-28T23:39:11.843Z,101265.41
2019-05-28T23:41:44.419Z,101267.02
2019-05-28T23:44:16.996Z,101269.94
2019-05-28T23:46:49.413Z,101264.98
2019-05-28T23:49:21.948Z,101263.45
2019-05-28T23:51:54.127Z,101264.37
2019-05-28T23:54:26.596Z,101256.71
2019-05-28T23:56:58.755Z,101259.15
2019-05-28T23:59:32.974Z,101256.87
